Time;durP1;ratioP1;P1;durP2;ratioP2;P2;SDS_P1;SDS_P2;PMS_P1;PMS_P2;Temp;Humidity;BMP_temperature;BMP_pressure;BME280_temperature;BME280_humidity;BME280_pressure;Samples;Min_cycle;Max_cycle;Signal;HPM_P1;HPM_P2
2022/01/28 00:01:17;;;;;;;;;;;;;;;-4.32;85.55;97404.09;5084251;28;20038;-61
2022/01/28 00:03:44;;;;;;;;;;;;;;;-4.29;85.72;97398.97;5085076;28;19955;-59
2022/01/28 00:06:12;;;;;;;;;;;;;;;-4.29;85.70;97409.78;5078259;28;20009;-60
2022/01/28 00:08:39;;;;;;;;;;;;;;;-4.18;84.80;97405.22;5064125;28;19928;-59
2022/01/28 00:11:05;;;;;;;;;;;;;;;-4.24;85.66;97403.59;5062738;28;19932;-61
2022/01/28 00:38:02;;;;;;;;;;;;;;;-4.35;86.50;97391.13;5064407;28;19924;-60
2022/01/28 00:40:30;;;;;;;;;;;;;;;-4.34;86.43;97384.63;5062399;28;19928;-60
2022/01/28 00:42:57;;;;;;;;;;;;;;;-4.34;85.97;97379.22;5064299;28;19931;-59
2022/01/28 00:45:23;;;;;;;;;;;;;;;-4.28;85.82;97389.00;5062885;28;19931;-61
2022/01/28 00:47:50;;;;;;;;;;;;;;;-4.51;84.64;97386.75;5062690;28;19983;-60
2022/01/28 00:50:16;;;;;;;;;;;;;;;-4.44;84.66;97380.00;5064051;28;19925;-60
2022/01/28 00:52:43;;;;;;;;;;;;;;;-4.41;84.11;97373.28;5062718;28;19932;-61
2022/01/28 00:55:10;;;;;;;;;;;;;;;-4.49;83.78;97381.91;5063614;28;19929;-61
2022/01/28 00:57:37;;;;;;;;;;;;;;;-4.54;83.90;97385.41;5061565;28;20334;-60
2022/01/28 01:00:05;;;;;;;;;;;;;;;-4.62;84.76;97372.41;5063667;28;19931;-61
2022/01/28 01:02:31;;;;;;;;;;;;;;;-4.63;85.09;97369.97;5062004;28;19924;-61
2022/01/28 01:04:58;;;;;;;;;;;;;;;-4.54;85.01;97362.97;5063525;28;19978;-59
2022/01/28 01:07:25;;;;;;;;;;;;;;;-4.57;84.83;97364.31;5079775;28;19924;-61
2022/01/28 01:09:51;;;;;;;;;;;;;;;-4.60;85.19;97356.75;5083858;28;19924;-60
2022/01/28 01:12:20;;;;;;;;;;;;;;;-4.61;85.39;97341.59;5082318;28;19923;-58
2022/01/28 01:14:47;;;;;;;;;;;;;;;-4.57;85.48;97340.00;5084392;28;19924;-60
2022/01/28 01:20:02;;;;;;;;;;;;;;;-4.60;85.69;97323.50;5083714;28;19924;-61
2022/01/28 01:22:36;;;;;;;;;;;;;;;-4.66;85.61;97323.50;5083968;28;19936;-62
2022/01/28 01:25:05;;;;;;;;;;;;;;;-4.58;85.27;97318.66;5085074;28;19931;-61
2022/01/28 01:27:31;;;;;;;;;;;;;;;-4.42;83.79;97312.16;5087515;28;19924;-60
2022/01/28 01:29:58;;;;;;;;;;;;;;;-4.47;83.02;97307.56;5087378;28;20389;-59
2022/01/28 01:32:25;;;;;;;;;;;;;;;-4.51;83.58;97308.38;5085694;28;19923;-61
2022/01/28 01:34:51;;;;;;;;;;;;;;;-4.48;83.43;97302.44;5087257;28;19924;-60
2022/01/28 01:37:18;;;;;;;;;;;;;;;-4.52;84.08;97293.25;5086762;28;19943;-59
2022/01/28 01:39:44;;;;;;;;;;;;;;;-4.59;84.45;97295.41;5086782;28;19924;-60
2022/01/28 01:42:22;;;;;;;;;;;;;;;-4.57;84.76;97287.84;5085665;28;20299;-60
2022/01/28 01:52:53;;;;;;;;;;;;;;;-4.76;85.25;97274.84;5087007;28;19924;-59
2022/01/28 01:55:20;;;;;;;;;;;;;;;-4.89;86.11;97269.97;5086807;28;19927;-60
2022/01/28 01:57:47;;;;;;;;;;;;;;;-4.92;86.17;97265.09;5087048;28;19924;-59
2022/01/28 02:00:14;;;;;;;;;;;;;;;-4.92;86.74;97265.09;5087067;28;20406;-62
2022/01/28 02:02:41;;;;;;;;;;;;;;;-4.95;86.37;97265.59;5087431;28;19924;-60
2022/01/28 02:05:08;;;;;;;;;;;;;;;-4.86;86.41;97249.69;5087184;28;19924;-60
2022/01/28 02:07:34;;;;;;;;;;;;;;;-4.97;87.44;97251.59;5069844;28;19978;-60
2022/01/28 02:10:01;;;;;;;;;;;;;;;-4.90;87.28;97252.13;5066477;28;20411;-62
2022/01/28 02:12:28;;;;;;;;;;;;;;;-4.94;88.18;97255.63;5066484;28;20225;-62
2022/01/28 02:14:54;;;;;;;;;;;;;;;-4.80;88.49;97246.75;5065947;28;19928;-58
2022/01/28 02:17:21;;;;;;;;;;;;;;;-4.80;88.38;97246.75;5064584;28;20019;-61
2022/01/28 02:19:47;;;;;;;;;;;;;;;-4.85;88.09;97233.22;5066200;28;19947;-58
2022/01/28 02:22:14;;;;;;;;;;;;;;;-4.86;87.59;97217.28;5066522;28;19925;-60
2022/01/28 02:24:43;;;;;;;;;;;;;;;-5.06;86.59;97231.56;5066022;28;20414;-60
2022/01/28 02:27:13;;;;;;;;;;;;;;;-5.17;86.56;97229.13;5065609;28;19928;-59
2022/01/28 02:29:41;;;;;;;;;;;;;;;-5.31;86.73;97233.41;5064217;28;19929;-63
2022/01/28 02:32:08;;;;;;;;;;;;;;;-5.33;88.20;97220.19;5066370;28;20335;-58
2022/01/28 02:34:37;;;;;;;;;;;;;;;-5.29;88.31;97223.94;5064535;28;19936;-61
2022/01/28 02:37:05;;;;;;;;;;;;;;;-5.28;88.46;97217.47;5065813;28;19943;-61
2022/01/28 02:39:32;;;;;;;;;;;;;;;-5.25;89.24;97211.53;5064689;28;19928;-59
2022/01/28 02:42:11;;;;;;;;;;;;;;;-5.12;88.75;97208.34;5065503;28;19924;-60
2022/01/28 02:44:49;;;;;;;;;;;;;;;-5.69;89.04;97199.50;5065828;28;20132;-59
2022/01/28 02:47:27;;;;;;;;;;;;;;;-5.42;89.40;97200.16;5066040;28;19924;-61
2022/01/28 02:49:54;;;;;;;;;;;;;;;-6.01;87.12;97201.56;5065457;28;20391;-59
2022/01/28 02:52:29;;;;;;;;;;;;;;;-5.90;88.90;97208.63;5065474;28;19930;-57
2022/01/28 02:54:56;;;;;;;;;;;;;;;-6.44;91.25;97207.22;5064596;28;19924;-62
2022/01/28 02:57:26;;;;;;;;;;;;;;;-6.03;90.80;97214.50;5065848;28;19924;-58
2022/01/28 02:59:53;;;;;;;;;;;;;;;-6.02;88.30;97221.50;5065740;28;19924;-59
2022/01/28 03:02:19;;;;;;;;;;;;;;;-5.98;87.98;97217.22;5063594;28;20387;-58
2022/01/28 03:05:12;;;;;;;;;;;;;;;-5.92;89.25;97237.75;5063900;28;19966;-60
2022/01/28 03:07:39;;;;;;;;;;;;;;;-5.77;89.29;97240.47;5082289;28;19924;-62
2022/01/28 03:12:58;;;;;;;;;;;;;;;-5.58;89.76;97217.34;5085146;28;20374;-60
2022/01/28 03:15:23;;;;;;;;;;;;;;;-5.54;89.74;97207.69;5085738;28;19924;-62
2022/01/28 03:18:08;;;;;;;;;;;;;;;-5.46;89.72;97209.88;5085828;28;19948;-60
2022/01/28 03:23:36;;;;;;;;;;;;;;;-5.30;89.26;97192.66;5080279;28;20218;-61
2022/01/28 03:26:02;;;;;;;;;;;;;;;-5.21;88.14;97207.25;5083497;28;20367;-60
2022/01/28 03:28:29;;;;;;;;;;;;;;;-5.08;86.32;97322.84;5084050;28;19924;-61
2022/01/28 03:30:55;;;;;;;;;;;;;;;-5.13;86.25;97217.53;5085346;28;19923;-61
2022/01/28 03:33:22;;;;;;;;;;;;;;;-5.08;86.61;97216.72;5083836;28;20369;-61
2022/01/28 03:35:49;;;;;;;;;;;;;;;-5.16;86.19;97207.25;5083732;28;20317;-61
2022/01/28 03:38:15;;;;;;;;;;;;;;;-5.13;86.08;97220.22;5085456;28;19928;-62
2022/01/28 03:40:42;;;;;;;;;;;;;;;-5.07;86.06;97202.94;5085125;28;19924;-60
2022/01/28 03:43:09;;;;;;;;;;;;;;;-5.08;86.31;97211.31;5083369;28;19924;-62
2022/01/28 03:45:36;;;;;;;;;;;;;;;-5.11;87.17;97196.47;5084808;28;20348;-60
2022/01/28 03:48:02;;;;;;;;;;;;;;;-4.93;87.76;97192.41;5084215;28;19930;-61
2022/01/28 03:50:34;;;;;;;;;;;;;;;-4.94;87.70;97186.22;5084977;28;19930;-61
2022/01/28 03:53:01;;;;;;;;;;;;;;;-4.91;87.36;97180.28;5081690;28;20022;-63
2022/01/28 03:55:27;;;;;;;;;;;;;;;-4.77;86.99;97192.19;5083591;28;19931;-63
2022/01/28 03:57:54;;;;;;;;;;;;;;;-4.97;87.75;97178.66;5084901;28;19938;-61
2022/01/28 04:00:25;;;;;;;;;;;;;;;-4.90;86.45;97192.69;5084254;28;19924;-60
2022/01/28 04:03:02;;;;;;;;;;;;;;;-4.87;86.18;97194.88;5082959;28;19946;-61
2022/01/28 04:13:27;;;;;;;;;;;;;;;-5.24;84.32;97191.56;5064129;28;20002;-63
2022/01/28 04:18:40;;;;;;;;;;;;;;;-5.26;85.17;97177.53;5060128;28;20023;-60
2022/01/28 04:21:07;;;;;;;;;;;;;;;-5.34;85.54;97196.16;5063866;28;20408;-59
2022/01/28 04:23:34;;;;;;;;;;;;;;;-5.17;83.99;97189.41;5063207;28;19924;-61
2022/01/28 04:26:00;;;;;;;;;;;;;;;-5.43;84.36;97189.63;5062575;28;19931;-61
2022/01/28 04:28:27;;;;;;;;;;;;;;;-5.27;84.60;97175.09;5064130;28;19954;-62
2022/01/28 04:30:53;;;;;;;;;;;;;;;-5.23;85.50;97192.41;5063610;28;19924;-59
2022/01/28 04:33:20;;;;;;;;;;;;;;;-5.05;86.03;97168.41;5063800;28;19924;-62
2022/01/28 04:35:50;;;;;;;;;;;;;;;-5.06;87.09;97172.16;5063789;28;19931;-59
2022/01/28 04:39:07;;;;;;;;;;;;;;;-4.97;86.39;97167.88;5063842;28;19924;-60
2022/01/28 04:43:40;;;;;;;;;;;;;;;-5.12;87.99;97162.44;5064209;28;19929;-59
2022/01/28 04:49:00;;;;;;;;;;;;;;;-5.02;88.21;97165.16;5063663;28;20410;-60
2022/01/28 05:02:15;;;;;;;;;;;;;;;-5.26;87.49;97134.34;5067739;28;19933;-60
2022/01/28 05:08:04;;;;;;;;;;;;;;;-5.14;87.20;97148.41;5080024;28;20344;-60
2022/01/28 05:29:00;;;;;;;;;;;;;;;-4.65;87.65;97113.56;5087499;28;19924;-60
2022/01/28 05:31:26;;;;;;;;;;;;;;;-4.54;87.38;97117.06;5085095;28;19924;-59
2022/01/28 05:33:59;;;;;;;;;;;;;;;-4.49;86.41;97127.88;5086447;28;19927;-59
2022/01/28 05:36:26;;;;;;;;;;;;;;;-4.35;86.84;97118.09;5086970;28;19924;-59
2022/01/28 05:38:54;;;;;;;;;;;;;;;-4.19;86.23;97155.66;5087216;28;19974;-61
2022/01/28 05:41:20;;;;;;;;;;;;;;;-4.25;86.08;97128.91;5085596;28;19924;-60
2022/01/28 05:43:47;;;;;;;;;;;;;;;-4.03;85.92;97146.41;5086226;28;20734;-60
2022/01/28 05:46:13;;;;;;;;;;;;;;;-4.09;85.72;97149.38;5087046;28;19958;-60
2022/01/28 05:48:40;;;;;;;;;;;;;;;-4.02;85.26;97133.69;5087518;28;20681;-59
2022/01/28 05:51:07;;;;;;;;;;;;;;;-3.83;85.17;97126.59;5086878;28;20409;-60
2022/01/28 05:53:33;;;;;;;;;;;;;;;-3.66;85.77;97127.88;5085601;28;19930;-60
2022/01/28 05:56:00;;;;;;;;;;;;;;;-3.38;83.10;97161.53;5085589;28;19936;-60
2022/01/28 05:58:27;;;;;;;;;;;;;;;-3.37;82.49;97146.94;5071619;28;19943;-61
2022/01/28 06:00:54;;;;;;;;;;;;;;;-3.23;81.82;97156.06;5086535;28;20400;-60
2022/01/28 06:03:20;;;;;;;;;;;;;;;-5.90;80.92;96669.44;5086769;28;19924;-62
2022/01/28 06:05:48;;;;;;;;;;;;;;;-2.88;82.48;97120.59;5085600;28;20019;-63
2022/01/28 06:08:15;;;;;;;;;;;;;;;-2.54;79.54;97156.63;5067811;28;19924;-60
2022/01/28 06:10:41;;;;;;;;;;;;;;;-3.08;81.72;97128.84;5065999;28;19924;-58
2022/01/28 06:13:11;;;;;;;;;;;;;;;-2.82;80.98;97164.72;5066675;28;19924;-61
2022/01/28 06:15:41;;;;;;;;;;;;;;;-2.89;82.02;97132.50;5064807;28;19931;-61
2022/01/28 06:18:09;;;;;;;;;;;;;;;-2.59;81.03;97140.41;5066564;28;20212;-60
2022/01/28 06:20:36;;;;;;;;;;;;;;;-2.81;82.65;97125.72;5066097;28;19924;-62
2022/01/28 06:23:03;;;;;;;;;;;;;;;-2.52;81.44;97140.06;5066674;28;19951;-61
2022/01/28 06:25:29;;;;;;;;;;;;;;;-2.86;81.44;97137.38;5081535;28;19931;-62
2022/01/28 06:27:56;;;;;;;;;;;;;;;-2.61;83.33;97134.47;5066068;28;19931;-61
2022/01/28 06:30:23;;;;;;;;;;;;;;;-2.59;81.25;97143.13;5066232;28;20345;-61
2022/01/28 06:32:49;;;;;;;;;;;;;;;-2.50;82.99;97141.44;5066274;28;19924;-59
2022/01/28 06:35:16;;;;;;;;;;;;;;;-2.32;82.20;97148.84;5066837;28;19936;-60
2022/01/28 06:37:43;;;;;;;;;;;;;;;-1.90;79.91;97140.00;5075394;28;19924;-59
2022/01/28 06:40:14;;;;;;;;;;;;;;;-1.65;79.70;97116.06;5070438;28;19924;-62
2022/01/28 06:42:41;;;;;;;;;;;;;;;-1.36;78.14;97145.84;5072821;28;19924;-60
2022/01/28 06:45:08;;;;;;;;;;;;;;;-1.26;77.03;97139.44;5077996;28;19946;-60
2022/01/28 06:47:35;;;;;;;;;;;;;;;-0.97;76.75;97115.66;5075302;28;19924;-63
2022/01/28 06:50:04;;;;;;;;;;;;;;;-0.67;75.82;97126.06;5079920;28;19923;-63
2022/01/28 06:52:32;;;;;;;;;;;;;;;-0.82;76.31;97134.47;5076293;28;19924;-60
2022/01/28 06:55:00;;;;;;;;;;;;;;;-0.49;75.70;97108.91;5076596;28;20314;-60
2022/01/28 06:57:28;;;;;;;;;;;;;;;-0.14;74.72;97130.03;5068643;28;19928;-58
2022/01/28 06:59:55;;;;;;;;;;;;;;;-0.52;75.26;97095.91;5079751;28;20453;-59
2022/01/28 07:02:22;;;;;;;;;;;;;;;-0.24;75.53;97117.41;5080036;28;20049;-59
2022/01/28 07:04:49;;;;;;;;;;;;;;;0.28;74.62;97110.72;5072760;28;19924;-61
2022/01/28 07:07:16;;;;;;;;;;;;;;;0.51;72.17;97104.25;5077329;28;19939;-60
2022/01/28 07:09:43;;;;;;;;;;;;;;;0.82;70.61;97101.66;5073676;28;19931;-59
2022/01/28 07:12:10;;;;;;;;;;;;;;;0.80;70.27;97107.44;5079099;28;19966;-61
2022/01/28 07:14:36;;;;;;;;;;;;;;;0.25;73.58;97105.88;5070228;28;19924;-59
2022/01/28 07:17:03;;;;;;;;;;;;;;;0.81;71.83;97103.59;5072489;28;19934;-58
2022/01/28 07:19:29;;;;;;;;;;;;;;;1.03;71.01;97094.63;5064554;28;20298;-58
2022/01/28 07:21:56;;;;;;;;;;;;;;;1.21;69.30;97080.84;5070915;28;19930;-63
2022/01/28 07:24:23;;;;;;;;;;;;;;;1.12;68.90;97090.06;5075038;28;19974;-63
2022/01/28 07:26:51;;;;;;;;;;;;;;;1.18;68.92;97078.72;5068537;28;20006;-63
2022/01/28 07:29:18;;;;;;;;;;;;;;;0.84;70.59;97086.59;5072288;28;19935;-61
2022/01/28 07:31:45;;;;;;;;;;;;;;;1.15;69.68;97076.63;5068703;28;19929;-63
2022/01/28 07:34:12;;;;;;;;;;;;;;;1.30;68.52;97084.44;5078286;28;19924;-61
2022/01/28 07:36:39;;;;;;;;;;;;;;;0.90;70.56;97090.81;4892478;28;5001690;-60
2022/01/28 07:39:07;;;;;;;;;;;;;;;0.44;73.23;97092.97;5064539;28;19924;-60
2022/01/28 07:41:34;;;;;;;;;;;;;;;0.79;70.94;97088.66;5051688;28;19923;-59
2022/01/28 07:44:06;;;;;;;;;;;;;;;0.59;70.17;97089.91;5066616;28;19924;-61
2022/01/28 07:46:33;;;;;;;;;;;;;;;0.46;72.16;97090.72;5065689;28;19924;-62
2022/01/28 07:49:00;;;;;;;;;;;;;;;1.08;70.70;97087.16;5076228;28;19931;-61
2022/01/28 07:51:27;;;;;;;;;;;;;;;1.61;70.18;97073.56;5067520;28;19947;-61
2022/01/28 07:53:53;;;;;;;;;;;;;;;2.04;68.27;97081.97;5064038;28;19924;-62
2022/01/28 07:56:22;;;;;;;;;;;;;;;2.28;65.83;97076.91;5069078;28;20326;-62
2022/01/28 07:58:48;;;;;;;;;;;;;;;2.36;64.68;97068.75;5084341;28;19924;-58
2022/01/28 08:01:15;;;;;;;;;;;;;;;2.85;64.74;97064.81;5075979;28;19924;-65
2022/01/28 08:03:42;;;;;;;;;;;;;;;3.05;62.40;97086.09;5074668;28;20365;-63
2022/01/28 08:06:08;;;;;;;;;;;;;;;3.43;61.68;97059.66;5075522;28;20367;-60
2022/01/28 08:08:35;;;;;;;;;;;;;;;3.62;59.66;97177.88;5070203;28;19931;-62
2022/01/28 08:11:02;;;;;;;;;;;;;;;3.77;60.03;97078.78;5070178;28;20010;-62
2022/01/28 08:13:29;;;;;;;;;;;;;;;4.02;59.27;97077.09;5072632;28;20016;-60
2022/01/28 08:15:56;;;;;;;;;;;;;;;4.35;59.53;97076.16;5071536;28;19924;-64
2022/01/28 08:18:22;;;;;;;;;;;;;;;4.40;57.74;97080.66;5072591;28;20496;-61
2022/01/28 08:20:49;;;;;;;;;;;;;;;4.59;58.71;97081.88;5076397;28;20338;-64
2022/01/28 08:23:16;;;;;;;;;;;;;;;4.65;57.64;97085.22;5072509;28;19924;-62
2022/01/28 08:25:42;;;;;;;;;;;;;;;4.60;57.94;97075.22;5073294;28;19935;-60
2022/01/28 08:28:09;;;;;;;;;;;;;;;4.59;58.63;97081.06;5054576;28;19924;-64
2022/01/28 08:30:38;;;;;;;;;;;;;;;4.14;58.52;97078.03;5044699;28;19924;-62
2022/01/28 08:33:05;;;;;;;;;;;;;;;4.15;59.00;97085.13;5045150;28;19925;-63
2022/01/28 08:35:36;;;;;;;;;;;;;;;4.26;59.59;97050.75;5053976;28;19924;-62
2022/01/28 08:38:13;;;;;;;;;;;;;;;4.31;59.28;97064.25;5057192;28;20362;-64
2022/01/28 08:40:40;;;;;;;;;;;;;;;4.55;58.47;97042.50;5052183;28;20027;-62
2022/01/28 08:43:07;;;;;;;;;;;;;;;4.71;57.42;97072.91;5055229;28;19966;-63
2022/01/28 08:45:34;;;;;;;;;;;;;;;4.95;57.29;97064.06;5056459;28;19924;-66
2022/01/28 08:48:00;;;;;;;;;;;;;;;4.92;56.41;97072.94;5048758;28;20031;-61
2022/01/28 08:50:27;;;;;;;;;;;;;;;5.17;57.16;97052.75;5058072;28;19924;-64
2022/01/28 08:52:54;;;;;;;;;;;;;;;5.45;56.85;97057.34;5053251;28;20034;-59
2022/01/28 08:55:20;;;;;;;;;;;;;;;5.57;53.84;97053.84;5043254;28;19924;-61
2022/01/28 08:57:47;;;;;;;;;;;;;;;5.05;54.81;97055.41;5055955;28;19924;-63
2022/01/28 09:00:17;;;;;;;;;;;;;;;5.03;53.82;97063.16;5052057;28;19931;-61
2022/01/28 09:02:44;;;;;;;;;;;;;;;5.07;53.00;97069.63;5053185;28;19924;-61
2022/01/28 09:05:11;;;;;;;;;;;;;;;5.02;51.73;97061.56;5053469;28;19933;-65
2022/01/28 09:07:37;;;;;;;;;;;;;;;5.43;51.55;97034.91;5050308;28;20402;-66
2022/01/28 09:10:10;;;;;;;;;;;;;;;5.87;51.97;97044.34;5046533;28;20326;-59
2022/01/28 09:15:35;;;;;;;;;;;;;;;6.25;51.09;97017.38;5053553;28;19936;-63
2022/01/28 09:18:01;;;;;;;;;;;;;;;6.26;49.85;97029.97;5052289;28;19924;-58
2022/01/28 09:20:29;;;;;;;;;;;;;;;6.43;48.38;97007.75;5055997;28;19936;-63
2022/01/28 09:22:56;;;;;;;;;;;;;;;6.63;51.54;97006.81;5050721;28;20330;-62
2022/01/28 09:25:23;;;;;;;;;;;;;;;7.03;49.87;96999.41;5055941;28;19928;-65
2022/01/28 09:27:50;;;;;;;;;;;;;;;6.13;49.21;97025.63;5055746;28;20310;-60
2022/01/28 09:30:17;;;;;;;;;;;;;;;6.57;50.86;97008.19;5049304;28;19931;-61
2022/01/28 09:32:44;;;;;;;;;;;;;;;6.32;48.26;97017.63;5052004;28;19925;-64
2022/01/28 09:35:10;;;;;;;;;;;;;;;6.98;49.56;96996.09;5050764;28;19925;-67
2022/01/28 09:37:37;;;;;;;;;;;;;;;6.91;47.04;97009.63;5055148;28;19924;-66
2022/01/28 09:40:05;;;;;;;;;;;;;;;6.32;48.82;97006.59;5050812;28;19925;-65
2022/01/28 09:42:36;;;;;;;;;;;;;;;5.98;50.17;96985.03;5052042;28;19924;-62
2022/01/28 17:13:42;;;;;;;;;;;;;;;6.69;36.90;97065.97;5034978;28;19932;-59
2022/01/28 17:16:09;;;;;;;;;;;;;;;6.59;37.45;97071.94;5047674;28;20701;-62
2022/01/28 17:18:36;;;;;;;;;;;;;;;6.58;39.12;97092.34;5047372;28;20399;-62
2022/01/28 17:21:03;;;;;;;;;;;;;;;6.70;39.69;97099.81;5047310;28;19924;-61
2022/01/28 17:23:34;;;;;;;;;;;;;;;6.48;40.09;97101.03;5045850;28;19924;-61
2022/01/28 17:26:00;;;;;;;;;;;;;;;6.29;38.42;97100.81;5047238;28;19925;-64
2022/01/28 17:28:27;;;;;;;;;;;;;;;6.41;38.85;97100.81;5047541;28;19924;-63
2022/01/28 17:30:54;;;;;;;;;;;;;;;6.34;39.90;97106.06;5047305;28;20354;-60
2022/01/28 17:33:20;;;;;;;;;;;;;;;6.24;38.40;97103.78;5047160;28;19924;-61
2022/01/28 17:35:47;;;;;;;;;;;;;;;6.22;38.76;97097.81;5046880;28;20447;-60
2022/01/28 17:38:20;;;;;;;;;;;;;;;6.23;39.41;97102.16;5045838;28;19929;-64
2022/01/28 17:40:47;;;;;;;;;;;;;;;6.23;38.79;97096.66;5045330;28;19925;-65
2022/01/28 17:43:14;;;;;;;;;;;;;;;6.26;40.22;97090.47;5046640;28;19929;-60
2022/01/28 17:45:41;;;;;;;;;;;;;;;6.16;40.64;97096.44;5046630;28;19925;-61
2022/01/28 17:48:07;;;;;;;;;;;;;;;6.21;39.55;97101.72;5047371;28;19980;-63
2022/01/28 17:50:34;;;;;;;;;;;;;;;6.35;39.31;97104.13;5046162;28;19928;-62
2022/01/28 17:53:21;;;;;;;;;;;;;;;6.32;39.51;97110.31;5046697;28;20388;-63
2022/01/28 17:55:48;;;;;;;;;;;;;;;6.28;38.93;97112.94;5046766;28;19967;-64
2022/01/28 17:58:14;;;;;;;;;;;;;;;6.31;39.63;97115.00;5046571;28;19950;-61
2022/01/28 18:00:41;;;;;;;;;;;;;;;6.33;38.01;97120.97;5046489;28;19925;-61
2022/01/28 18:03:08;;;;;;;;;;;;;;;6.35;39.16;97117.88;5046075;28;20299;-60
2022/01/28 18:05:35;;;;;;;;;;;;;;;6.28;39.92;97132.19;5046554;28;20315;-63
2022/01/28 18:08:02;;;;;;;;;;;;;;;6.16;39.73;97129.44;5048198;28;19923;-60
2022/01/28 18:10:28;;;;;;;;;;;;;;;6.23;39.43;97134.38;5066826;28;19924;-60
2022/01/28 18:13:02;;;;;;;;;;;;;;;6.29;39.48;97144.81;5064821;28;20430;-61
2022/01/28 18:15:30;;;;;;;;;;;;;;;6.18;38.51;97155.44;5065849;28;19924;-61
2022/01/28 18:17:56;;;;;;;;;;;;;;;6.17;38.93;97164.03;5066059;28;19931;-64
2022/01/28 18:20:23;;;;;;;;;;;;;;;6.09;40.71;97162.16;5066076;28;20040;-60
2022/01/28 18:22:50;;;;;;;;;;;;;;;5.94;40.61;97165.56;5066367;28;19924;-63
2022/01/28 18:25:17;;;;;;;;;;;;;;;5.94;41.13;97182.84;5065930;28;19924;-61
2022/01/28 18:27:44;;;;;;;;;;;;;;;5.86;42.72;97163.69;5081332;28;20019;-64
2022/01/28 18:30:11;;;;;;;;;;;;;;;5.84;42.36;97176.94;5066485;28;19924;-61
2022/01/28 18:32:37;;;;;;;;;;;;;;;5.70;44.95;97187.38;5065877;28;20425;-64
2022/01/28 18:35:04;;;;;;;;;;;;;;;5.60;44.43;97176.78;5065871;28;19929;-64
2022/01/28 18:37:31;;;;;;;;;;;;;;;5.57;44.38;97182.97;5065754;28;19974;-64
2022/01/28 18:39:57;;;;;;;;;;;;;;;5.58;43.81;97168.09;5065757;28;19924;-61
2022/01/28 18:42:51;;;;;;;;;;;;;;;5.49;44.72;97159.91;5065736;28;19929;-65
2022/01/28 18:45:12;;;;;;;;;;;;;;;5.37;45.91;97161.78;5064945;28;19924;-63
2022/01/28 18:47:39;;;;;;;;;;;;;;;5.32;45.20;97186.69;5065695;28;19959;-59
2022/01/28 18:50:10;;;;;;;;;;;;;;;5.19;45.50;97176.75;5064443;28;19928;-65
2022/01/28 18:52:37;;;;;;;;;;;;;;;5.19;46.37;97177.56;5064575;28;19928;-64
2022/01/28 18:55:04;;;;;;;;;;;;;;;5.06;46.13;97186.06;5066210;28;20685;-60
2022/01/28 18:57:31;;;;;;;;;;;;;;;5.20;44.19;97194.84;5063864;28;19924;-62
2022/01/28 18:59:58;;;;;;;;;;;;;;;5.29;44.06;97203.84;5064121;28;19967;-64
2022/01/28 19:02:26;;;;;;;;;;;;;;;5.26;44.78;97208.06;5065561;28;20024;-63
2022/01/28 19:04:53;;;;;;;;;;;;;;;5.14;46.61;97207.16;5065539;28;19929;-61
2022/01/28 19:07:20;;;;;;;;;;;;;;;5.09;45.59;97215.59;5064001;28;19928;-65
2022/01/28 19:09:46;;;;;;;;;;;;;;;5.24;45.31;97206.78;5048035;28;19924;-62
2022/01/28 19:12:19;;;;;;;;;;;;;;;5.13;46.33;97197.31;5045819;28;20413;-65
2022/01/28 19:14:47;;;;;;;;;;;;;;;5.07;46.91;97184.91;5044932;28;20366;-59
2022/01/28 19:17:15;;;;;;;;;;;;;;;5.07;46.68;97182.16;5045460;28;20035;-59
2022/01/28 19:19:42;;;;;;;;;;;;;;;5.04;47.30;97182.81;5044686;28;19925;-61
2022/01/28 19:22:10;;;;;;;;;;;;;;;4.97;47.25;97193.50;5045471;28;20348;-60
2022/01/28 19:24:36;;;;;;;;;;;;;;;4.95;47.81;97199.31;5045178;28;19931;-59
2022/01/28 19:27:03;;;;;;;;;;;;;;;4.68;48.20;97208.81;5045232;28;20323;-60
2022/01/28 19:29:30;;;;;;;;;;;;;;;4.33;47.43;97144.22;5043926;28;19935;-59
2022/01/28 19:31:56;;;;;;;;;;;;;;;4.64;48.04;97204.31;5044792;28;19924;-64
2022/01/28 19:34:23;;;;;;;;;;;;;;;4.74;47.29;97203.16;5043274;28;20015;-65
2022/01/28 19:36:49;;;;;;;;;;;;;;;4.81;46.31;97214.41;5044380;28;19936;-60
2022/01/28 19:39:16;;;;;;;;;;;;;;;4.87;46.04;97207.63;5043251;28;20387;-65
2022/01/28 19:41:43;;;;;;;;;;;;;;;4.88;46.40;97203.72;5044698;28;20410;-63
2022/01/28 19:44:09;;;;;;;;;;;;;;;4.86;45.56;97206.81;5044422;28;19974;-60
2022/01/28 19:46:36;;;;;;;;;;;;;;;4.85;45.11;97218.13;5044728;28;20271;-59
2022/01/28 19:49:10;;;;;;;;;;;;;;;4.93;44.15;97229.06;5044753;28;20002;-61
2022/01/28 19:51:41;;;;;;;;;;;;;;;4.87;45.01;97227.63;5044897;28;20023;-64
2022/01/28 19:54:09;;;;;;;;;;;;;;;4.84;45.25;97216.50;5044829;28;19935;-63
2022/01/28 19:56:36;;;;;;;;;;;;;;;4.74;45.64;97214.13;5043245;28;19925;-64
2022/01/28 19:59:07;;;;;;;;;;;;;;;4.76;45.07;97207.16;5042996;28;19924;-60
2022/01/28 20:01:38;;;;;;;;;;;;;;;4.72;46.06;97199.91;5044681;28;20369;-63
2022/01/28 20:04:05;;;;;;;;;;;;;;;4.61;46.66;97183.84;5044311;28;19928;-63
2022/01/28 20:06:32;;;;;;;;;;;;;;;4.54;46.40;97202.72;5043069;28;19978;-59
2022/01/28 20:08:58;;;;;;;;;;;;;;;4.63;45.75;97225.44;5055315;28;19947;-62
2022/01/28 20:11:25;;;;;;;;;;;;;;;4.56;46.37;97214.19;5064589;28;19928;-63
2022/01/28 20:13:52;;;;;;;;;;;;;;;4.51;47.06;97222.59;5063965;28;19924;-64
2022/01/28 20:16:18;;;;;;;;;;;;;;;4.51;46.98;97216.28;5063906;28;19924;-64
2022/01/28 20:18:45;;;;;;;;;;;;;;;4.45;47.42;97218.41;5064175;28;19928;-61
2022/01/28 20:21:12;;;;;;;;;;;;;;;4.33;47.71;97223.75;5062259;28;19924;-64
2022/01/28 20:23:38;;;;;;;;;;;;;;;4.38;47.22;97251.00;5064054;28;19924;-59
2022/01/28 20:26:05;;;;;;;;;;;;;;;4.48;46.55;97245.19;5064209;28;19931;-59
2022/01/28 20:28:32;;;;;;;;;;;;;;;4.43;46.81;97248.09;5062835;28;19967;-65
2022/01/28 20:30:59;;;;;;;;;;;;;;;4.56;45.78;97247.09;5062154;28;19931;-64
2022/01/28 20:33:26;;;;;;;;;;;;;;;4.64;43.87;97238.03;5062154;28;20386;-64
2022/01/28 20:35:53;;;;;;;;;;;;;;;4.68;44.41;97310.31;5062456;28;19928;-61
2022/01/28 20:38:22;;;;;;;;;;;;;;;4.81;44.47;97231.69;5063812;28;19924;-64
2022/01/28 20:40:49;;;;;;;;;;;;;;;4.80;45.46;97229.25;5062013;28;20327;-63
2022/01/28 20:43:16;;;;;;;;;;;;;;;4.71;45.93;97231.25;5063951;28;20300;-64
2022/01/28 20:45:42;;;;;;;;;;;;;;;4.69;45.79;97213.16;5064220;28;20023;-59
2022/01/28 20:48:09;;;;;;;;;;;;;;;4.75;45.03;97204.75;5064016;28;19924;-63
2022/01/28 20:50:36;;;;;;;;;;;;;;;4.71;44.67;97196.34;5062303;28;19924;-61
2022/01/28 20:53:03;;;;;;;;;;;;;;;4.67;45.44;97198.16;5063235;28;19981;-63
2022/01/28 20:55:29;;;;;;;;;;;;;;;4.73;44.94;97190.56;5062149;28;19931;-65
2022/01/28 20:57:56;;;;;;;;;;;;;;;4.71;45.08;97198.31;5063676;28;20235;-60
2022/01/28 21:00:23;;;;;;;;;;;;;;;4.68;44.85;97204.47;5063449;28;20426;-60
2022/01/28 21:02:49;;;;;;;;;;;;;;;4.64;45.63;97205.13;5063903;28;19924;-63
2022/01/28 21:05:16;;;;;;;;;;;;;;;4.51;46.82;97211.63;5063579;28;19958;-63
2022/01/28 21:07:47;;;;;;;;;;;;;;;4.31;47.06;97234.25;5064093;28;19934;-61
2022/01/28 21:10:19;;;;;;;;;;;;;;;4.34;47.16;97228.13;5043677;28;19998;-64
2022/01/28 21:12:46;;;;;;;;;;;;;;;4.19;47.71;97244.25;5041531;28;20024;-65
2022/01/28 21:15:12;;;;;;;;;;;;;;;4.24;47.56;97258.59;5042996;28;19960;-63
2022/01/28 21:17:39;;;;;;;;;;;;;;;4.14;48.95;97269.88;5043102;28;20362;-59
2022/01/28 21:20:08;;;;;;;;;;;;;;;3.96;48.57;97282.00;5043484;28;20395;-65
2022/01/28 21:22:35;;;;;;;;;;;;;;;4.11;46.10;97284.25;5043263;28;20434;-63
2022/01/28 21:25:02;;;;;;;;;;;;;;;4.31;45.68;97256.19;5042010;28;19921;-60
2022/01/28 21:27:28;;;;;;;;;;;;;;;4.24;46.59;97253.13;5041956;28;19959;-61
2022/01/28 21:29:55;;;;;;;;;;;;;;;4.18;47.52;97246.19;5043666;28;20002;-65
2022/01/28 21:32:22;;;;;;;;;;;;;;;4.09;47.04;97259.13;5042049;28;19924;-63
2022/01/28 21:34:49;;;;;;;;;;;;;;;4.03;47.35;97243.94;5043483;28;19924;-64
2022/01/28 21:37:16;;;;;;;;;;;;;;;4.11;47.07;97245.88;5043569;28;20406;-65
2022/01/28 21:39:43;;;;;;;;;;;;;;;3.83;48.96;97243.78;5043403;28;19936;-61
2022/01/28 21:42:09;;;;;;;;;;;;;;;3.67;50.01;97248.13;5044568;28;19931;-65
2022/01/28 21:44:36;;;;;;;;;;;;;;;3.64;49.50;97251.50;5047183;28;19925;-64
2022/01/28 21:47:03;;;;;;;;;;;;;;;3.57;50.22;97254.75;5047220;28;19925;-64
2022/01/28 21:49:30;;;;;;;;;;;;;;;3.41;51.79;97256.31;5047055;28;20711;-60
2022/01/28 21:51:56;;;;;;;;;;;;;;;3.34;51.66;97264.19;5046848;28;19943;-66
2022/01/28 21:54:23;;;;;;;;;;;;;;;3.16;52.02;97272.66;5045210;28;19925;-63
2022/01/28 21:56:50;;;;;;;;;;;;;;;3.14;52.05;97259.31;5044634;28;19925;-62